Time;durP1;ratioP1;P1;durP2;ratioP2;P2;SDS_P1;SDS_P2;PMS_P1;PMS_P2;Temp;Humidity;BMP_temperature;BMP_pressure;BME280_temperature;BME280_humidity;BME280_pressure;Samples;Min_cycle;Max_cycle;Signal;HPM_P1;HPM_P2
2022/08/16 00:03:40;;;;;;;10.65;3.72;;;;;;;16.34;100.00;97173.50;18280070;32;20073;-61
2022/08/16 00:13:44;;;;;;;5.00;3.70;;;;;;;16.43;100.00;97176.22;18304929;32;20094;-61
2022/08/16 00:23:57;;;;;;;4.60;3.43;;;;;;;16.32;100.00;97178.50;18278922;32;20058;-61
2022/08/16 00:34:00;;;;;;;4.17;2.90;;;;;;;16.14;100.00;97174.13;18303869;32;20310;-62
2022/08/16 00:44:09;;;;;;;5.70;3.53;;;;;;;16.07;100.00;97175.41;18289607;32;20070;-61
2022/08/16 00:54:13;;;;;;;3.87;3.37;;;;;;;16.01;100.00;97160.31;18302979;32;20442;-61
2022/08/16 01:04:25;;;;;;;6.45;4.20;;;;;;;15.92;100.00;97156.75;18301676;32;20067;-61
2022/08/16 01:14:36;;;;;;;5.05;3.65;;;;;;;15.85;100.00;97168.13;18288762;32;20061;-61
2022/08/16 01:24:44;;;;;;;4.68;2.60;;;;;;;15.76;100.00;97164.56;18301373;32;20059;-61
2022/08/16 01:34:56;;;;;;;4.20;3.25;;;;;;;15.64;100.00;97164.34;18300940;32;20434;-61
2022/08/16 01:44:59;;;;;;;18.15;3.72;;;;;;;15.52;100.00;97164.94;18300416;32;20114;-61
2022/08/16 01:55:04;;;;;;;3.40;2.65;;;;;;;15.40;100.00;97158.16;18285838;32;20085;-61
2022/08/16 02:05:07;;;;;;;3.25;2.95;;;;;;;15.30;100.00;97168.53;18299549;32;20054;-61
2022/08/16 02:15:13;;;;;;;;;;;;;;;15.24;100.00;97176.84;18284580;32;20121;-61
2022/08/16 02:25:16;;;;;;;2.97;2.53;;;;;;;15.12;100.00;97179.34;18285035;32;19972;-61
2022/08/16 02:35:20;;;;;;;7.13;3.53;;;;;;;14.99;100.00;97180.22;18297810;32;20058;-63
2022/08/16 02:45:27;;;;;;;5.22;3.53;;;;;;;14.88;100.00;97174.22;18297741;32;20392;-64
2022/08/16 02:55:29;;;;;;;3.53;2.95;;;;;;;14.83;100.00;97174.34;18296680;32;20094;-63
2022/08/16 03:05:42;;;;;;;4.50;3.25;;;;;;;14.80;100.00;97164.91;18284291;32;20065;-63
2022/08/16 03:15:51;;;;;;;4.20;3.25;;;;;;;14.72;100.00;97160.19;18283212;32;20100;-64
2022/08/16 03:25:54;;;;;;;4.97;3.20;;;;;;;14.65;100.00;97149.75;18295549;32;20092;-63
2022/08/16 03:35:58;;;;;;;3.80;3.12;;;;;;;14.56;100.00;97144.19;18295028;32;20084;-64
2022/08/16 03:46:22;;;;;;;3.67;2.92;;;;;;;14.49;100.00;97141.09;18294421;32;20450;-63
2022/08/16 03:56:45;;;;;;;4.30;3.37;;;;;;;14.45;100.00;97133.88;18282777;32;20370;-63
2022/08/16 04:07:02;;;;;;;6.12;3.70;;;;;;;14.38;100.00;97135.09;18270750;32;20124;-64
2022/08/16 04:17:08;;;;;;;6.03;3.47;;;;;;;14.36;100.00;97134.63;18280498;32;20050;-63
2022/08/16 04:27:11;;;;;;;4.95;3.87;;;;;;;14.30;100.00;97135.03;18293185;32;20446;-63
2022/08/16 04:37:14;;;;;;;5.90;3.30;;;;;;;14.29;100.00;97130.69;18292475;32;20071;-63
2022/08/16 04:47:17;;;;;;;5.87;4.00;;;;;;;14.27;100.00;97130.22;18288404;32;20058;-63
2022/08/16 04:57:25;;;;;;;3.37;3.05;;;;;;;14.27;100.00;97132.94;18302664;32;20464;-63
2022/08/16 05:07:31;;;;;;;4.55;2.97;;;;;;;14.29;100.00;97138.84;18302338;32;20066;-63
2022/08/16 05:17:35;;;;;;;3.90;3.03;;;;;;;14.33;100.00;97137.94;18301760;32;20058;-63
2022/08/16 05:27:41;;;;;;;4.68;3.30;;;;;;;14.46;100.00;97144.44;18301451;32;20082;-63
2022/08/16 05:37:45;;;;;;;3.70;3.40;;;;;;;14.72;100.00;97143.87;18287276;32;20098;-64
2022/08/16 05:47:55;;;;;;;6.90;3.95;;;;;;;15.03;100.00;97148.53;18300398;32;20058;-63
2022/08/16 05:58:18;;;;;;;6.47;4.20;;;;;;;15.33;100.00;97162.47;18287715;32;20073;-63
2022/08/16 06:08:35;;;;;;;5.15;4.10;;;;;;;15.71;100.00;97170.16;18285531;32;20422;-64
2022/08/16 06:18:48;;;;;;;4.87;4.32;;;;;;;16.13;100.00;97167.06;18298929;32;20051;-64
2022/08/16 06:29:01;;;;;;;4.50;3.72;;;;;;;16.54;100.00;97176.72;18284413;32;20100;-64
2022/08/16 06:50:37;;;;;;;5.05;4.50;;;;;;;17.38;100.00;97173.72;18297359;32;20388;-64
2022/08/16 07:00:46;;;;;;;8.18;3.85;;;;;;;17.77;100.00;97174.50;18284024;32;20085;-64
2022/08/16 07:11:06;;;;;;;4.35;3.62;;;;;;;18.09;100.00;97169.56;18283477;32;20081;-64
2022/08/16 07:21:40;;;;;;;6.23;4.63;;;;;;;18.53;99.49;97180.22;18295588;32;20077;-64
2022/08/16 07:43:59;;;;;;;8.55;5.07;;;;;;;19.23;93.38;97182.34;18294813;32;20061;-63
2022/08/16 07:54:23;;;;;;;7.10;4.00;;;;;;;19.69;88.96;97179.53;18282709;32;20038;-63
2022/08/16 08:04:44;;;;;;;6.55;3.90;;;;;;;20.15;84.32;97191.22;18282327;32;20077;-63
2022/08/16 08:15:02;;;;;;;5.20;3.40;;;;;;;20.61;85.05;97188.25;18295258;32;20442;-64
2022/08/16 08:26:11;;;;;;;5.05;3.53;;;;;;;21.05;80.86;97204.84;18304415;32;20058;-63
2022/08/16 08:47:57;;;;;;;5.55;3.80;;;;;;;22.08;76.38;97226.37;18044581;32;20169;-63
2022/08/16 09:32:06;;;;;;;4.97;3.35;;;;;;;23.91;62.97;97225.78;17919440;32;20408;-63
2022/08/16 09:42:10;;;;;;;4.62;3.05;;;;;;;24.34;63.82;97218.94;17981794;32;20063;-64
2022/08/16 09:52:16;;;;;;;3.92;3.15;;;;;;;24.75;60.32;97220.31;18117593;32;20085;-63
2022/08/16 10:02:35;;;;;;;5.78;3.08;;;;;;;25.13;57.15;97223.94;18297309;32;20061;-63
2022/08/16 10:13:19;;;;;;;5.40;3.37;;;;;;;25.30;55.71;97219.81;18297403;32;20090;-63
2022/08/16 10:23:23;;;;;;;4.47;3.58;;;;;;;25.92;54.57;97216.44;18284763;32;20054;-63
2022/08/16 10:33:32;;;;;;;3.12;2.80;;;;;;;26.41;54.42;97210.87;18298336;32;20047;-63
2022/08/16 10:43:36;;;;;;;5.32;2.92;;;;;;;26.63;49.78;97207.06;18283035;32;20381;-63
2022/08/16 10:53:42;;;;;;;4.30;3.03;;;;;;;26.70;46.35;97201.56;18296609;32;20046;-63
2022/08/16 11:15:21;;;;;;;;;;;;;;;27.33;47.07;97198.63;18232524;32;20113;-63
2022/08/16 11:25:30;;;;;;;5.45;3.35;;;;;;;27.98;48.66;97187.59;18219932;32;20008;-63
2022/08/16 11:36:00;;;;;;;4.28;3.40;;;;;;;28.20;41.47;97191.19;18231305;32;20077;-63
2022/08/16 11:46:25;;;;;;;8.18;3.10;;;;;;;28.38;40.90;97185.59;18245973;32;20109;-63
2022/08/16 11:56:46;;;;;;;6.20;3.10;;;;;;;28.64;44.05;97172.47;18293850;32;20034;-63
2022/08/16 12:07:04;;;;;;;6.70;3.20;;;;;;;28.99;44.87;97167.16;18294043;32;20062;-63
2022/08/16 12:17:17;;;;;;;3.45;3.15;;;;;;;29.32;38.58;97173.34;18280874;32;20081;-63
2022/08/16 12:27:35;;;;;;;5.00;3.60;;;;;;;29.66;42.36;97167.16;18279889;32;20446;-63
2022/08/16 12:38:11;;;;;;;3.95;2.70;;;;;;;30.11;38.88;97155.22;18278978;32;20082;-63
2022/08/16 12:48:57;;;;;;;3.42;3.00;;;;;;;30.50;37.85;97156.84;18281400;32;20062;-63
2022/08/16 12:59:14;;;;;;;4.22;3.55;;;;;;;30.55;36.78;97153.62;18280357;32;20055;-63
2022/08/16 13:09:24;;;;;;;6.15;2.97;;;;;;;31.00;40.68;97139.50;18302881;32;20394;-62
2022/08/16 13:19:35;;;;;;;3.20;2.90;;;;;;;31.71;39.67;97131.31;18287644;32;20042;-62
2022/08/16 13:30:01;;;;;;;3.30;2.87;;;;;;;31.88;33.43;97131.44;18287379;32;20070;-62
2022/08/16 13:40:29;;;;;;;5.15;3.45;;;;;;;32.32;37.13;97128.66;18300872;32;20042;-63
2022/08/16 13:50:38;;;;;;;5.68;3.40;;;;;;;32.91;33.18;97118.69;18300415;32;20069;-60
2022/08/16 14:00:55;;;;;;;4.43;3.20;;;;;;;32.88;34.28;97113.97;18299471;32;20038;-60
2022/08/16 14:11:03;;;;;;;5.55;3.10;;;;;;;32.20;30.92;97104.91;18286435;32;20095;-60
2022/08/16 14:21:13;;;;;;;4.65;2.62;;;;;;;32.60;33.77;97100.13;18298821;32;20047;-60
2022/08/16 14:31:21;;;;;;;4.72;3.30;;;;;;;33.11;35.94;97088.63;18285355;32;20054;-60
2022/08/16 14:41:27;;;;;;;4.20;2.70;;;;;;;33.24;29.97;97085.16;18284453;32;20093;-60
2022/08/16 14:51:30;;;;;;;4.37;2.95;;;;;;;33.18;32.84;97079.28;18297359;32;20068;-60
2022/08/16 15:01:38;;;;;;;5.62;3.37;;;;;;;32.16;29.86;97070.62;18232573;32;20114;-60
2022/08/16 15:12:12;;;;;;;4.25;2.90;;;;;;;31.67;33.08;97057.09;18233878;32;20414;-60
2022/08/16 15:22:37;;;;;;;5.03;2.70;;;;;;;31.26;32.08;97045.00;18232993;32;20055;-60
2022/08/16 15:32:42;;;;;;;4.65;2.95;;;;;;;30.42;33.90;97028.63;18232124;32;20475;-60
2022/08/16 15:42:51;;;;;;;3.42;2.67;;;;;;;29.84;33.15;97027.66;18231269;32;20369;-60
2022/08/16 15:53:00;;;;;;;3.47;2.83;;;;;;;29.44;35.47;97018.91;18231995;32;20081;-60
2022/08/16 16:03:09;;;;;;;3.08;2.42;;;;;;;29.25;34.57;97018.28;18294275;32;20379;-60
2022/08/16 16:13:15;;;;;;;4.78;3.00;;;;;;;29.07;35.50;97016.38;18293715;32;20556;-60
2022/08/16 16:23:31;;;;;;;3.00;2.70;;;;;;;28.91;36.68;97030.03;18293106;32;20073;-60
2022/08/16 16:33:38;;;;;;;3.90;2.55;;;;;;;28.64;36.46;97015.88;18293098;32;20065;-60
2022/08/16 16:43:43;;;;;;;2.83;2.53;;;;;;;28.59;37.21;97008.75;18303230;32;20050;-60
2022/08/16 16:53:48;;;;;;;4.10;2.50;;;;;;;28.50;36.92;96995.28;18302972;32;20076;-60
2022/08/16 17:04:05;;;;;;;;;;;;;;;28.37;36.31;96991.37;18303175;32;20037;-60
2022/08/16 17:14:15;;;;;;;5.05;2.80;;;;;;;27.84;40.53;96990.37;18289378;32;19945;-60
2022/08/16 17:24:35;;;;;;;6.53;2.70;;;;;;;27.00;47.66;96978.56;18301969;32;20434;-60
2022/08/16 17:34:43;;;;;;;3.28;2.55;;;;;;;26.37;48.32;96972.53;18287423;32;20068;-60
2022/08/16 17:44:52;;;;;;;5.05;3.05;;;;;;;25.64;52.27;96965.06;18300940;32;20046;-60
2022/08/16 17:54:56;;;;;;;4.65;2.55;;;;;;;24.97;54.77;96973.28;18299935;32;20456;-60
2022/08/16 18:05:00;;;;;;;3.60;2.50;;;;;;;24.35;56.31;96971.09;18299677;32;20143;-60
2022/08/16 18:15:07;;;;;;;4.97;2.45;;;;;;;23.76;57.32;96973.50;18285476;32;20414;-60
2022/08/16 18:25:10;;;;;;;4.32;2.60;;;;;;;23.21;60.87;96977.47;18298943;32;20112;-60
2022/08/16 18:35:14;;;;;;;;;;;;;;;22.71;63.27;96976.63;18285042;32;20117;-60
2022/08/16 18:45:17;;;;;;;3.53;2.75;;;;;;;22.20;64.25;96970.19;18298069;32;20369;-60
2022/08/16 18:55:22;;;;;;;3.53;2.83;;;;;;;21.78;67.10;96971.69;18283851;32;20338;-60
2022/08/16 19:05:28;;;;;;;3.45;2.95;;;;;;;21.36;70.19;96971.53;18295972;32;20077;-60
2022/08/16 19:15:31;;;;;;;4.25;3.15;;;;;;;20.94;71.84;96995.69;18296637;32;20414;-62
2022/08/16 19:25:37;;;;;;;5.43;3.37;;;;;;;20.57;73.39;97012.38;18295797;32;20343;-62
2022/08/16 19:35:48;;;;;;;3.10;2.80;;;;;;;20.23;74.21;97020.09;18295547;32;20046;-62
2022/08/16 19:45:52;;;;;;;4.33;3.70;;;;;;;19.93;74.74;97031.41;18282063;32;20046;-62
2022/08/16 19:55:55;;;;;;;6.47;4.37;;;;;;;19.67;76.68;97026.28;18294107;32;20117;-62
2022/08/16 20:05:58;;;;;;;6.00;3.80;;;;;;;19.45;77.92;97031.13;18294542;32;20069;-62
2022/08/16 20:16:01;;;;;;;4.05;3.65;;;;;;;19.15;81.40;97040.72;18289256;32;20046;-62
2022/08/16 20:26:03;;;;;;;4.23;3.27;;;;;;;19.02;83.06;97027.03;18304769;32;20442;-62
2022/08/16 20:36:07;;;;;;;6.90;3.65;;;;;;;18.82;81.87;97036.09;18304139;32;20449;-62
2022/08/16 20:46:12;;;;;;;3.58;3.25;;;;;;;18.66;82.83;97042.19;18303833;32;20090;-62
2022/08/16 20:56:14;;;;;;;3.90;3.50;;;;;;;18.49;82.75;97067.03;18302657;32;20042;-62
2022/08/16 21:06:17;;;;;;;8.13;3.63;;;;;;;18.35;83.59;97062.66;18289177;32;20065;-62
2022/08/16 21:16:20;;;;;;;3.40;3.10;;;;;;;18.22;84.45;97063.72;18302386;32;20055;-62
2022/08/16 21:26:23;;;;;;;3.97;3.57;;;;;;;18.13;86.43;97063.81;18301315;32;20366;-62
2022/08/16 21:36:25;;;;;;;6.07;2.93;;;;;;;18.00;87.09;97070.34;18301227;32;20373;-62
2022/08/16 21:46:37;;;;;;;3.87;3.20;;;;;;;17.98;88.62;97092.56;18300792;32;20053;-62
2022/08/16 21:56:39;;;;;;;4.72;3.30;;;;;;;18.01;89.96;97080.16;18300050;32;20054;-62
2022/08/16 22:06:42;;;;;;;8.18;4.05;;;;;;;18.03;89.78;97081.41;18299882;32;20050;-62
2022/08/16 22:16:45;;;;;;;3.67;3.27;;;;;;;18.07;90.43;97070.59;18299248;32;20038;-62
2022/08/16 22:26:49;;;;;;;5.82;3.33;;;;;;;17.94;91.09;97067.00;18299067;32;20050;-62
2022/08/16 22:36:52;;;;;;;3.72;3.05;;;;;;;17.97;91.99;97065.53;18297376;32;20101;-62
2022/08/16 22:46:55;;;;;;;3.85;3.03;;;;;;;17.94;92.82;97056.84;18297783;32;20061;-62
2022/08/16 22:56:58;;;;;;;5.03;3.00;;;;;;;18.05;93.54;97067.41;18283078;32;20377;-62
2022/08/16 23:07:01;;;;;;;3.20;2.90;;;;;;;18.15;94.08;97080.66;18296854;32;20099;-62
2022/08/16 23:17:06;;;;;;;3.87;3.12;;;;;;;18.18;93.21;97071.78;18296359;32;20046;-62
2022/08/16 23:27:09;;;;;;;3.60;3.15;;;;;;;18.21;94.46;97078.53;18296627;32;20042;-62
2022/08/16 23:37:12;;;;;;;6.40;4.30;;;;;;;18.30;94.30;97172.31;18295629;32;20050;-62
2022/08/16 23:47:14;;;;;;;5.47;4.57;;;;;;;18.38;92.59;97159.72;18294726;32;20076;-62
2022/08/16 23:57:18;;;;;;;5.07;4.20;;;;;;;18.64;87.37;97175.91;18294309;32;20391;-62
